sensor_id;sensor_type;location;lat;lon;timestamp;pressure;altitude;pressure_sealevel;temperature;humidity
6132;BME280;3097;42.692;23.278;2023-02-20T00:01:54;95336.88;;;11.88;56.57
6132;BME280;3097;42.692;23.278;2023-02-20T00:04:20;95347.50;;;11.80;57.03
6132;BME280;3097;42.692;23.278;2023-02-20T00:06:46;95329.56;;;11.67;57.00
6132;BME280;3097;42.692;23.278;2023-02-20T00:09:13;95342.19;;;11.75;57.64
6132;BME280;3097;42.692;23.278;2023-02-20T00:11:39;95307.34;;;11.48;58.14
6132;BME280;3097;42.692;23.278;2023-02-20T00:14:05;95329.84;;;11.59;58.28
6132;BME280;3097;42.692;23.278;2023-02-20T00:16:30;95327.13;;;11.54;58.47
6132;BME280;3097;42.692;23.278;2023-02-20T00:18:56;95325.69;;;11.58;58.71
6132;BME280;3097;42.692;23.278;2023-02-20T00:21:21;95315.50;;;11.45;58.96
6132;BME280;3097;42.692;23.278;2023-02-20T00:23:47;95314.22;;;11.54;58.86
6132;BME280;3097;42.692;23.278;2023-02-20T00:26:13;95336.88;;;11.52;59.22
6132;BME280;3097;42.692;23.278;2023-02-20T00:28:40;95332.94;;;11.49;59.86
6132;BME280;3097;42.692;23.278;2023-02-20T00:31:06;95329.41;;;11.44;59.93
6132;BME280;3097;42.692;23.278;2023-02-20T00:33:32;95313.28;;;11.30;60.02
6132;BME280;3097;42.692;23.278;2023-02-20T00:35:58;95334.44;;;11.39;60.33
6132;BME280;3097;42.692;23.278;2023-02-20T00:38:23;95324.63;;;11.47;59.94
6132;BME280;3097;42.692;23.278;2023-02-20T00:40:48;95316.16;;;11.40;60.12
6132;BME280;3097;42.692;23.278;2023-02-20T00:43:14;95319.94;;;11.38;60.10
6132;BME280;3097;42.692;23.278;2023-02-20T00:45:39;95325.09;;;11.38;60.32
6132;BME280;3097;42.692;23.278;2023-02-20T00:48:05;95310.47;;;11.13;60.79
6132;BME280;3097;42.692;23.278;2023-02-20T00:50:30;95353.63;;;11.24;60.81
6132;BME280;3097;42.692;23.278;2023-02-20T00:52:56;95346.47;;;11.27;60.92
6132;BME280;3097;42.692;23.278;2023-02-20T00:55:21;95348.75;;;11.16;61.49
6132;BME280;3097;42.692;23.278;2023-02-20T00:57:47;95344.06;;;11.07;61.64
6132;BME280;3097;42.692;23.278;2023-02-20T01:00:22;95361.72;;;11.10;61.71
6132;BME280;3097;42.692;23.278;2023-02-20T01:02:48;95369.06;;;11.06;61.99
6132;BME280;3097;42.692;23.278;2023-02-20T01:05:14;95375.09;;;11.00;62.53
6132;BME280;3097;42.692;23.278;2023-02-20T01:07:39;95374.34;;;10.93;62.82
6132;BME280;3097;42.692;23.278;2023-02-20T01:10:05;95364.50;;;10.83;63.05
6132;BME280;3097;42.692;23.278;2023-02-20T01:12:31;95366.13;;;10.78;63.58
6132;BME280;3097;42.692;23.278;2023-02-20T01:14:56;95366.94;;;10.78;63.45
6132;BME280;3097;42.692;23.278;2023-02-20T01:17:22;95364.66;;;10.64;64.01
6132;BME280;3097;42.692;23.278;2023-02-20T01:19:47;95368.22;;;10.63;64.36
6132;BME280;3097;42.692;23.278;2023-02-20T01:22:12;95366.63;;;10.62;64.32
6132;BME280;3097;42.692;23.278;2023-02-20T01:24:38;95374.91;;;10.70;64.59
6132;BME280;3097;42.692;23.278;2023-02-20T01:27:05;95384.47;;;10.63;64.58
6132;BME280;3097;42.692;23.278;2023-02-20T01:29:30;95381.28;;;10.68;64.58
6132;BME280;3097;42.692;23.278;2023-02-20T01:31:55;95379.72;;;10.67;65.07
6132;BME280;3097;42.692;23.278;2023-02-20T01:34:21;95388.81;;;10.69;65.25
6132;BME280;3097;42.692;23.278;2023-02-20T01:36:51;95395.94;;;10.74;65.42
6132;BME280;3097;42.692;23.278;2023-02-20T01:39:25;95403.66;;;10.74;65.55
6132;BME280;3097;42.692;23.278;2023-02-20T01:41:55;95400.66;;;10.77;65.56
6132;BME280;3097;42.692;23.278;2023-02-20T01:44:25;95398.25;;;10.82;65.50
6132;BME280;3097;42.692;23.278;2023-02-20T01:46:53;95402.97;;;10.85;65.83
6132;BME280;3097;42.692;23.278;2023-02-20T01:52:19;95403.41;;;10.82;66.51
6132;BME280;3097;42.692;23.278;2023-02-20T01:55:00;95371.25;;;10.53;66.80
6132;BME280;3097;42.692;23.278;2023-02-20T01:57:29;95426.63;;;10.82;66.88
6132;BME280;3097;42.692;23.278;2023-02-20T02:00:02;95433.19;;;10.78;67.45
6132;BME280;3097;42.692;23.278;2023-02-20T02:02:32;95424.06;;;10.75;67.48
6132;BME280;3097;42.692;23.278;2023-02-20T02:04:58;95411.56;;;10.79;67.39
6132;BME280;3097;42.692;23.278;2023-02-20T02:07:23;95389.69;;;10.57;67.75
6132;BME280;3097;42.692;23.278;2023-02-20T02:09:57;95415.47;;;10.57;68.21
6132;BME280;3097;42.692;23.278;2023-02-20T02:12:24;95425.78;;;10.57;67.73
6132;BME280;3097;42.692;23.278;2023-02-20T02:14:50;95413.91;;;10.49;67.86
6132;BME280;3097;42.692;23.278;2023-02-20T02:17:24;95410.16;;;10.52;67.77
6132;BME280;3097;42.692;23.278;2023-02-20T02:43:44;95438.09;;;9.97;67.28
6132;BME280;3097;42.692;23.278;2023-02-20T02:46:27;95443.47;;;9.89;67.63
6132;BME280;3097;42.692;23.278;2023-02-20T02:49:02;95443.69;;;9.81;68.21
6132;BME280;3097;42.692;23.278;2023-02-20T02:51:35;95432.22;;;9.63;68.77
6132;BME280;3097;42.692;23.278;2023-02-20T02:54:14;95449.22;;;9.78;68.68
6132;BME280;3097;42.692;23.278;2023-02-20T02:56:43;95452.59;;;9.85;68.60
6132;BME280;3097;42.692;23.278;2023-02-20T02:59:32;95439.94;;;9.83;68.55
6132;BME280;3097;42.692;23.278;2023-02-20T03:02:02;95438.94;;;9.78;68.64
6132;BME280;3097;42.692;23.278;2023-02-20T03:04:30;95447.06;;;9.81;68.55
6132;BME280;3097;42.692;23.278;2023-02-20T03:07:01;95443.09;;;9.79;68.79
6132;BME280;3097;42.692;23.278;2023-02-20T03:09:29;95438.56;;;9.74;68.99
6132;BME280;3097;42.692;23.278;2023-02-20T03:11:57;95444.50;;;9.75;69.04
6132;BME280;3097;42.692;23.278;2023-02-20T03:14:37;95450.84;;;9.65;69.04
6132;BME280;3097;42.692;23.278;2023-02-20T03:17:28;95455.59;;;9.68;68.75
6132;BME280;3097;42.692;23.278;2023-02-20T03:19:57;95464.91;;;9.69;68.59
6132;BME280;3097;42.692;23.278;2023-02-20T03:22:33;95474.44;;;9.69;68.38
6132;BME280;3097;42.692;23.278;2023-02-20T03:25:25;95471.84;;;9.62;68.70
6132;BME280;3097;42.692;23.278;2023-02-20T03:28:25;95481.75;;;9.52;68.92
6132;BME280;3097;42.692;23.278;2023-02-20T03:31:11;95488.69;;;9.58;68.20
6132;BME280;3097;42.692;23.278;2023-02-20T03:34:05;95487.69;;;9.59;67.60
6132;BME280;3097;42.692;23.278;2023-02-20T03:37:06;95497.38;;;9.57;67.63
6132;BME280;3097;42.692;23.278;2023-02-20T03:39:55;95466.34;;;9.39;67.65
6132;BME280;3097;42.692;23.278;2023-02-20T03:42:43;95472.06;;;9.41;67.92
6132;BME280;3097;42.692;23.278;2023-02-20T03:45:30;95487.91;;;9.38;68.69
6132;BME280;3097;42.692;23.278;2023-02-20T03:48:01;95483.94;;;9.36;68.23
6132;BME280;3097;42.692;23.278;2023-02-20T03:50:28;95493.44;;;9.35;68.53
6132;BME280;3097;42.692;23.278;2023-02-20T03:52:54;95495.63;;;9.38;68.38
6132;BME280;3097;42.692;23.278;2023-02-20T03:55:20;95493.63;;;9.40;68.14
6132;BME280;3097;42.692;23.278;2023-02-20T03:57:49;95440.19;;;8.96;67.62
6132;BME280;3097;42.692;23.278;2023-02-20T04:00:19;95521.94;;;9.40;67.69
6132;BME280;3097;42.692;23.278;2023-02-20T04:02:47;95529.06;;;9.38;67.86
6132;BME280;3097;42.692;23.278;2023-02-20T04:05:18;95524.53;;;9.47;67.53
6132;BME280;3097;42.692;23.278;2023-02-20T04:07:57;95504.53;;;9.36;67.73
6132;BME280;3097;42.692;23.278;2023-02-20T04:10:28;95487.31;;;9.29;66.95
6132;BME280;3097;42.692;23.278;2023-02-20T04:12:55;95517.19;;;9.57;67.12
6132;BME280;3097;42.692;23.278;2023-02-20T04:15:23;95520.97;;;9.61;66.73
6132;BME280;3097;42.692;23.278;2023-02-20T04:17:56;95512.81;;;9.57;67.03
6132;BME280;3097;42.692;23.278;2023-02-20T04:20:22;95483.16;;;9.28;67.21
6132;BME280;3097;42.692;23.278;2023-02-20T04:22:49;95473.66;;;9.29;66.77
6132;BME280;3097;42.692;23.278;2023-02-20T04:25:41;95524.53;;;9.53;66.79
6132;BME280;3097;42.692;23.278;2023-02-20T04:28:09;95526.69;;;9.43;67.35
6132;BME280;3097;42.692;23.278;2023-02-20T04:30:35;95540.94;;;9.46;67.77
6132;BME280;3097;42.692;23.278;2023-02-20T04:33:01;95529.69;;;9.47;67.57
6132;BME280;3097;42.692;23.278;2023-02-20T04:35:26;95554.63;;;9.59;67.50
6132;BME280;3097;42.692;23.278;2023-02-20T04:37:52;95530.66;;;9.52;67.49
6132;BME280;3097;42.692;23.278;2023-02-20T04:40:20;95543.34;;;9.60;67.02
6132;BME280;3097;42.692;23.278;2023-02-20T04:42:46;95538.16;;;9.47;67.49
6132;BME280;3097;42.692;23.278;2023-02-20T04:45:11;95522.72;;;9.41;67.37
6132;BME280;3097;42.692;23.278;2023-02-20T04:47:37;95525.50;;;9.39;66.67
6132;BME280;3097;42.692;23.278;2023-02-20T04:50:03;95530.25;;;9.42;66.41
6132;BME280;3097;42.692;23.278;2023-02-20T04:52:29;95528.84;;;9.33;66.29
6132;BME280;3097;42.692;23.278;2023-02-20T04:54:56;95536.19;;;9.29;66.08
6132;BME280;3097;42.692;23.278;2023-02-20T04:57:21;95537.38;;;9.27;64.56
6132;BME280;3097;42.692;23.278;2023-02-20T04:59:47;95545.69;;;9.29;64.31
6132;BME280;3097;42.692;23.278;2023-02-20T05:02:13;95543.72;;;9.24;64.12
6132;BME280;3097;42.692;23.278;2023-02-20T05:04:38;95552.41;;;9.30;62.27
6132;BME280;3097;42.692;23.278;2023-02-20T05:07:04;95558.72;;;9.14;62.47
6132;BME280;3097;42.692;23.278;2023-02-20T05:09:30;95574.34;;;9.13;62.91
6132;BME280;3097;42.692;23.278;2023-02-20T05:11:56;95557.50;;;8.97;62.52
6132;BME280;3097;42.692;23.278;2023-02-20T05:14:22;95565.22;;;9.10;61.77
6132;BME280;3097;42.692;23.278;2023-02-20T05:16:49;95576.47;;;9.03;61.79
6132;BME280;3097;42.692;23.278;2023-02-20T05:19:16;95568.59;;;9.04;62.09
6132;BME280;3097;42.692;23.278;2023-02-20T05:21:43;95568.81;;;9.09;61.56
6132;BME280;3097;42.692;23.278;2023-02-20T05:24:27;95570.78;;;9.14;60.90
6132;BME280;3097;42.692;23.278;2023-02-20T05:26:53;95483.78;;;8.50;60.75
6132;BME280;3097;42.692;23.278;2023-02-20T05:29:19;95578.09;;;9.10;61.31
6132;BME280;3097;42.692;23.278;2023-02-20T05:31:44;95583.22;;;9.10;61.22
6132;BME280;3097;42.692;23.278;2023-02-20T05:34:10;95573.34;;;9.01;61.31
6132;BME280;3097;42.692;23.278;2023-02-20T05:36:35;95588.78;;;9.14;61.64
6132;BME280;3097;42.692;23.278;2023-02-20T05:39:02;95604.44;;;9.19;61.46
6132;BME280;3097;42.692;23.278;2023-02-20T05:41:27;95601.47;;;9.22;61.62
6132;BME280;3097;42.692;23.278;2023-02-20T05:43:53;95577.50;;;9.02;61.90
6132;BME280;3097;42.692;23.278;2023-02-20T05:46:23;95610.72;;;9.10;62.52
6132;BME280;3097;42.692;23.278;2023-02-20T05:48:50;95602.56;;;8.86;63.66
6132;BME280;3097;42.692;23.278;2023-02-20T05:51:27;95611.66;;;8.89;64.58
6132;BME280;3097;42.692;23.278;2023-02-20T05:53:52;95593.84;;;8.87;64.19
6132;BME280;3097;42.692;23.278;2023-02-20T05:56:18;95603.00;;;9.03;64.02
6132;BME280;3097;42.692;23.278;2023-02-20T05:58:44;95568.75;;;8.89;63.86
6132;BME280;3097;42.692;23.278;2023-02-20T06:01:24;95604.84;;;9.16;63.65
6132;BME280;3097;42.692;23.278;2023-02-20T06:03:50;95603.25;;;9.28;62.28
6132;BME280;3097;42.692;23.278;2023-02-20T06:06:16;95613.56;;;9.28;62.45
6132;BME280;3097;42.692;23.278;2023-02-20T06:08:42;95613.00;;;9.39;60.83
6132;BME280;3097;42.692;23.278;2023-02-20T06:11:09;95624.66;;;9.35;60.95
6132;BME280;3097;42.692;23.278;2023-02-20T06:13:35;95622.09;;;9.48;59.82
6132;BME280;3097;42.692;23.278;2023-02-20T06:16:01;95630.03;;;9.53;59.91
6132;BME280;3097;42.692;23.278;2023-02-20T06:18:26;95621.72;;;9.64;58.94
6132;BME280;3097;42.692;23.278;2023-02-20T06:20:52;95614.63;;;9.66;58.41
6132;BME280;3097;42.692;23.278;2023-02-20T06:23:18;95614.22;;;9.83;57.82
6132;BME280;3097;42.692;23.278;2023-02-20T06:25:44;95616.00;;;9.89;58.38
6132;BME280;3097;42.692;23.278;2023-02-20T06:28:09;95622.91;;;10.08;57.61
6132;BME280;3097;42.692;23.278;2023-02-20T06:30:35;95634.03;;;10.08;58.56
6132;BME280;3097;42.692;23.278;2023-02-20T06:33:00;95598.16;;;10.00;58.03
6132;BME280;3097;42.692;23.278;2023-02-20T06:35:25;95640.00;;;10.22;57.88
6132;BME280;3097;42.692;23.278;2023-02-20T06:37:51;95563.13;;;9.80;57.25
6132;BME280;3097;42.692;23.278;2023-02-20T06:40:16;95636.81;;;10.27;57.35
6132;BME280;3097;42.692;23.278;2023-02-20T06:42:42;95646.69;;;10.50;55.51
6132;BME280;3097;42.692;23.278;2023-02-20T06:45:07;95627.69;;;10.44;54.57
6132;BME280;3097;42.692;23.278;2023-02-20T06:47:35;95648.44;;;10.62;53.73
6132;BME280;3097;42.692;23.278;2023-02-20T06:50:00;95656.59;;;10.66;54.08
6132;BME280;3097;42.692;23.278;2023-02-20T06:52:25;95643.09;;;10.64;54.10
6132;BME280;3097;42.692;23.278;2023-02-20T06:54:51;95650.22;;;10.62;53.99
6132;BME280;3097;42.692;23.278;2023-02-20T06:57:19;95645.69;;;10.64;53.53
6132;BME280;3097;42.692;23.278;2023-02-20T06:59:45;95638.38;;;10.47;53.25
6132;BME280;3097;42.692;23.278;2023-02-20T07:02:13;95645.13;;;10.42;52.94
6132;BME280;3097;42.692;23.278;2023-02-20T07:04:39;95637.44;;;10.22;53.81
6132;BME280;3097;42.692;23.278;2023-02-20T07:07:05;95666.16;;;10.26;53.69
6132;BME280;3097;42.692;23.278;2023-02-20T07:09:30;95659.00;;;10.34;53.11
6132;BME280;3097;42.692;23.278;2023-02-20T07:11:56;95670.91;;;10.35;52.28
6132;BME280;3097;42.692;23.278;2023-02-20T07:14:22;95665.31;;;10.45;51.75
6132;BME280;3097;42.692;23.278;2023-02-20T07:16:47;95673.28;;;10.43;51.24
6132;BME280;3097;42.692;23.278;2023-02-20T07:19:13;95681.38;;;10.54;51.37
6132;BME280;3097;42.692;23.278;2023-02-20T07:21:38;95674.44;;;10.61;51.07
6132;BME280;3097;42.692;23.278;2023-02-20T07:24:04;95671.03;;;10.80;49.57
6132;BME280;3097;42.692;23.278;2023-02-20T07:26:30;95685.88;;;10.91;49.38
6132;BME280;3097;42.692;23.278;2023-02-20T07:28:56;95680.13;;;10.89;48.03
6132;BME280;3097;42.692;23.278;2023-02-20T07:31:23;95689.75;;;11.13;47.90
6132;BME280;3097;42.692;23.278;2023-02-20T07:33:48;95671.91;;;11.18;47.02
6132;BME280;3097;42.692;23.278;2023-02-20T07:36:14;95677.59;;;11.34;47.35
6132;BME280;3097;42.692;23.278;2023-02-20T07:38:40;95647.69;;;11.57;46.12
6132;BME280;3097;42.692;23.278;2023-02-20T07:41:06;95655.03;;;11.54;44.70
6132;BME280;3097;42.692;23.278;2023-02-20T07:43:32;95639.88;;;11.64;45.23
6132;BME280;3097;42.692;23.278;2023-02-20T07:45:57;95681.63;;;12.24;44.00
6132;BME280;3097;42.692;23.278;2023-02-20T07:48:23;95684.56;;;12.52;44.04
6132;BME280;3097;42.692;23.278;2023-02-20T07:50:48;95683.09;;;12.99;42.11
6132;BME280;3097;42.692;23.278;2023-02-20T07:53:16;95684.44;;;13.98;41.20
6132;BME280;3097;42.692;23.278;2023-02-20T07:55:42;95691.44;;;15.66;36.94
6132;BME280;3097;42.692;23.278;2023-02-20T07:58:08;95689.16;;;16.98;36.01
6132;BME280;3097;42.692;23.278;2023-02-20T08:00:33;95682.56;;;18.41;32.42
6132;BME280;3097;42.692;23.278;2023-02-20T08:02:59;95678.88;;;19.21;31.17
6132;BME280;3097;42.692;23.278;2023-02-20T08:05:24;95675.66;;;19.71;30.40
6132;BME280;3097;42.692;23.278;2023-02-20T08:07:51;95685.41;;;20.12;28.80
6132;BME280;3097;42.692;23.278;2023-02-20T08:10:19;95673.63;;;20.55;29.01
6132;BME280;3097;42.692;23.278;2023-02-20T08:12:46;95683.78;;;21.02;27.91
6132;BME280;3097;42.692;23.278;2023-02-20T08:15:11;95676.97;;;19.07;29.43
6132;BME280;3097;42.692;23.278;2023-02-20T08:17:38;95660.00;;;18.25;31.26
6132;BME280;3097;42.692;23.278;2023-02-20T08:20:05;95680.66;;;18.32;30.83
6132;BME280;3097;42.692;23.278;2023-02-20T08:22:31;95696.59;;;16.89;32.74
6132;BME280;3097;42.692;23.278;2023-02-20T08:24:57;95705.13;;;16.35;34.12
6132;BME280;3097;42.692;23.278;2023-02-20T08:27:22;95721.34;;;16.08;35.50
6132;BME280;3097;42.692;23.278;2023-02-20T08:29:48;95712.16;;;15.89;35.28
6132;BME280;3097;42.692;23.278;2023-02-20T08:32:13;95713.59;;;15.97;34.40
6132;BME280;3097;42.692;23.278;2023-02-20T08:34:38;95713.88;;;15.83;34.71
6132;BME280;3097;42.692;23.278;2023-02-20T08:37:04;95708.38;;;15.40;35.56
6132;BME280;3097;42.692;23.278;2023-02-20T08:39:29;95712.38;;;15.07;35.95
6132;BME280;3097;42.692;23.278;2023-02-20T08:41:54;95697.72;;;15.01;37.48
6132;BME280;3097;42.692;23.278;2023-02-20T08:44:20;95724.81;;;14.94;36.94
6132;BME280;3097;42.692;23.278;2023-02-20T08:46:49;95698.50;;;14.90;37.61
6132;BME280;3097;42.692;23.278;2023-02-20T08:49:16;95683.28;;;14.94;37.91
6132;BME280;3097;42.692;23.278;2023-02-20T08:51:51;95685.25;;;15.15;36.33
6132;BME280;3097;42.692;23.278;2023-02-20T08:54:17;95701.63;;;15.16;37.09
6132;BME280;3097;42.692;23.278;2023-02-20T08:56:42;95687.19;;;14.26;37.80
6132;BME280;3097;42.692;23.278;2023-02-20T08:59:08;95681.91;;;13.80;38.79
6132;BME280;3097;42.692;23.278;2023-02-20T09:01:33;95655.81;;;13.51;38.71
6132;BME280;3097;42.692;23.278;2023-02-20T09:03:59;95673.34;;;13.91;38.56
6132;BME280;3097;42.692;23.278;2023-02-20T09:06:24;95665.66;;;13.73;37.41
6132;BME280;3097;42.692;23.278;2023-02-20T09:08:51;95662.91;;;13.08;38.70
6132;BME280;3097;42.692;23.278;2023-02-20T09:11:17;95663.53;;;12.42;39.99
6132;BME280;3097;42.692;23.278;2023-02-20T09:13:47;95677.59;;;12.28;40.91
6132;BME280;3097;42.692;23.278;2023-02-20T09:16:17;95677.72;;;12.15;41.75
6132;BME280;3097;42.692;23.278;2023-02-20T09:18:44;95672.78;;;12.74;41.82
6132;BME280;3097;42.692;23.278;2023-02-20T09:21:11;95676.41;;;13.28;40.42
6132;BME280;3097;42.692;23.278;2023-02-20T09:23:37;95677.31;;;13.82;39.14
6132;BME280;3097;42.692;23.278;2023-02-20T09:26:03;95682.31;;;14.07;38.49
6132;BME280;3097;42.692;23.278;2023-02-20T09:28:29;95669.66;;;13.99;37.85
6132;BME280;3097;42.692;23.278;2023-02-20T09:30:54;95670.56;;;13.63;38.68
6132;BME280;3097;42.692;23.278;2023-02-20T09:33:21;95660.13;;;13.39;39.47
6132;BME280;3097;42.692;23.278;2023-02-20T09:35:47;95677.25;;;13.40;40.67
6132;BME280;3097;42.692;23.278;2023-02-20T09:38:14;95675.63;;;13.28;39.75
6132;BME280;3097;42.692;23.278;2023-02-20T09:40:40;95681.88;;;12.84;40.89
6132;BME280;3097;42.692;23.278;2023-02-20T09:45:52;95690.03;;;12.80;41.21
6132;BME280;3097;42.692;23.278;2023-02-20T09:51:17;95663.72;;;12.65;42.02
6132;BME280;3097;42.692;23.278;2023-02-20T09:54:11;95655.53;;;12.50;41.62
6132;BME280;3097;42.692;23.278;2023-02-20T09:56:44;95661.66;;;12.31;41.25
6132;BME280;3097;42.692;23.278;2023-02-20T09:59:23;95675.81;;;12.28;41.57
6132;BME280;3097;42.692;23.278;2023-02-20T10:04:53;95673.88;;;12.24;42.29
6132;BME280;3097;42.692;23.278;2023-02-20T10:07:24;95659.88;;;12.31;41.81
6132;BME280;3097;42.692;23.278;2023-02-20T10:09:51;95686.13;;;12.53;41.54
6132;BME280;3097;42.692;23.278;2023-02-20T10:17:39;95690.50;;;12.03;39.04
6132;BME280;3097;42.692;23.278;2023-02-20T10:20:37;95686.31;;;11.77;40.68
6132;BME280;3097;42.692;23.278;2023-02-20T10:26:07;95672.56;;;11.83;40.29
6132;BME280;3097;42.692;23.278;2023-02-20T10:28:35;95654.81;;;11.93;39.93
6132;BME280;3097;42.692;23.278;2023-02-20T10:31:14;95660.06;;;11.80;40.04
6132;BME280;3097;42.692;23.278;2023-02-20T10:33:51;95662.63;;;11.80;41.00
6132;BME280;3097;42.692;23.278;2023-02-20T10:36:24;95649.78;;;11.67;40.12
6132;BME280;3097;42.692;23.278;2023-02-20T10:39:05;95637.84;;;11.79;40.74
6132;BME280;3097;42.692;23.278;2023-02-20T10:44:32;95644.00;;;11.72;40.58
6132;BME280;3097;42.692;23.278;2023-02-20T10:47:04;95648.78;;;11.68;41.13
6132;BME280;3097;42.692;23.278;2023-02-20T10:49:40;95629.50;;;11.77;39.50
6132;BME280;3097;42.692;23.278;2023-02-20T10:52:11;95627.50;;;11.79;40.55
6132;BME280;3097;42.692;23.278;2023-02-20T10:54:39;95641.91;;;11.93;39.97
6132;BME280;3097;42.692;23.278;2023-02-20T10:57:17;95623.56;;;12.01;39.40
6132;BME280;3097;42.692;23.278;2023-02-20T10:59:50;95643.53;;;12.13;39.78
6132;BME280;3097;42.692;23.278;2023-02-20T11:02:27;95631.97;;;12.15;39.90
6132;BME280;3097;42.692;23.278;2023-02-20T11:05:04;95625.09;;;12.27;40.37
6132;BME280;3097;42.692;23.278;2023-02-20T11:07:31;95626.22;;;12.38;40.12
6132;BME280;3097;42.692;23.278;2023-02-20T11:09:57;95618.38;;;12.45;40.42
6132;BME280;3097;42.692;23.278;2023-02-20T11:12:31;95623.22;;;12.59;39.56
6132;BME280;3097;42.692;23.278;2023-02-20T11:15:04;95622.63;;;12.75;39.05
6132;BME280;3097;42.692;23.278;2023-02-20T11:17:30;95627.75;;;12.82;38.78
6132;BME280;3097;42.692;23.278;2023-02-20T11:19:57;95632.53;;;12.78;39.40
6132;BME280;3097;42.692;23.278;2023-02-20T11:22:42;95629.66;;;12.87;39.00
6132;BME280;3097;42.692;23.278;2023-02-20T11:27:40;95636.63;;;12.86;39.50
6132;BME280;3097;42.692;23.278;2023-02-20T11:33:10;95642.75;;;12.92;39.15
6132;BME280;3097;42.692;23.278;2023-02-20T11:35:41;95645.63;;;12.84;39.20
6132;BME280;3097;42.692;23.278;2023-02-20T11:38:23;95622.84;;;12.92;38.36
6132;BME280;3097;42.692;23.278;2023-02-20T11:43:36;95612.88;;;12.77;39.31
6132;BME280;3097;42.692;23.278;2023-02-20T11:46:20;95610.72;;;12.74;39.74
6132;BME280;3097;42.692;23.278;2023-02-20T11:49:04;95614.16;;;12.68;39.11
6132;BME280;3097;42.692;23.278;2023-02-20T11:59:37;95602.78;;;12.51;40.10
6132;BME280;3097;42.692;23.278;2023-02-20T12:05:06;95608.81;;;12.63;39.32
6132;BME280;3097;42.692;23.278;2023-02-20T12:07:56;95601.22;;;12.68;39.43
6132;BME280;3097;42.692;23.278;2023-02-20T12:12:56;95576.66;;;12.59;38.93
6132;BME280;3097;42.692;23.278;2023-02-20T12:15:25;95591.31;;;12.65;39.31
6132;BME280;3097;42.692;23.278;2023-02-20T12:20:29;95590.97;;;12.62;38.68
6132;BME280;3097;42.692;23.278;2023-02-20T12:25:54;95597.19;;;12.72;38.77
6132;BME280;3097;42.692;23.278;2023-02-20T12:36:35;95596.78;;;12.75;39.29
6132;BME280;3097;42.692;23.278;2023-02-20T12:39:14;95598.34;;;12.76;39.26
6132;BME280;3097;42.692;23.278;2023-02-20T12:42:02;95602.56;;;12.71;38.51
6132;BME280;3097;42.692;23.278;2023-02-20T12:47:21;95603.38;;;12.71;39.44
6132;BME280;3097;42.692;23.278;2023-02-20T12:53:05;95579.59;;;12.45;38.81
6132;BME280;3097;42.692;23.278;2023-02-20T12:56:08;95590.00;;;12.56;39.81
6132;BME280;3097;42.692;23.278;2023-02-20T12:58:50;95601.94;;;12.75;38.78
6132;BME280;3097;42.692;23.278;2023-02-20T13:01:19;95602.66;;;12.83;38.57
6132;BME280;3097;42.692;23.278;2023-02-20T13:03:56;95599.19;;;12.89;38.51
6132;BME280;3097;42.692;23.278;2023-02-20T13:06:34;95592.31;;;12.83;38.73
6132;BME280;3097;42.692;23.278;2023-02-20T13:09:25;95587.75;;;12.78;38.37
6132;BME280;3097;42.692;23.278;2023-02-20T13:12:01;95559.91;;;12.25;38.99
6132;BME280;3097;42.692;23.278;2023-02-20T13:14:48;95596.38;;;12.35;39.76
6132;BME280;3097;42.692;23.278;2023-02-20T13:17:25;95574.50;;;12.38;39.59
6132;BME280;3097;42.692;23.278;2023-02-20T13:19:55;95600.00;;;12.53;39.71
6132;BME280;3097;42.692;23.278;2023-02-20T13:22:22;95596.97;;;12.56;39.30
6132;BME280;3097;42.692;23.278;2023-02-20T13:24:47;95599.34;;;12.57;39.37
6132;BME280;3097;42.692;23.278;2023-02-20T13:27:31;95591.06;;;12.49;39.10
6132;BME280;3097;42.692;23.278;2023-02-20T13:30:00;95606.81;;;12.65;39.21
6132;BME280;3097;42.692;23.278;2023-02-20T13:32:31;95593.09;;;12.65;39.26
6132;BME280;3097;42.692;23.278;2023-02-20T13:38:13;95612.41;;;12.44;40.59
6132;BME280;3097;42.692;23.278;2023-02-20T13:40:41;95603.16;;;12.36;40.63
6132;BME280;3097;42.692;23.278;2023-02-20T13:53:56;95627.38;;;12.78;39.75
6132;BME280;3097;42.692;23.278;2023-02-20T13:56:52;95619.06;;;12.76;40.05
6132;BME280;3097;42.692;23.278;2023-02-20T13:59:21;95621.34;;;12.85;40.20
6132;BME280;3097;42.692;23.278;2023-02-20T14:02:20;95620.97;;;12.81;40.41
6132;BME280;3097;42.692;23.278;2023-02-20T14:05:00;95623.44;;;12.76;40.44
6132;BME280;3097;42.692;23.278;2023-02-20T14:12:30;95617.72;;;12.86;40.60
6132;BME280;3097;42.692;23.278;2023-02-20T14:14:57;95614.44;;;12.78;40.62
6132;BME280;3097;42.692;23.278;2023-02-20T14:17:23;95602.31;;;12.61;41.60
6132;BME280;3097;42.692;23.278;2023-02-20T14:19:57;95595.91;;;12.63;41.87
6132;BME280;3097;42.692;23.278;2023-02-20T14:22:29;95601.28;;;12.80;41.42
6132;BME280;3097;42.692;23.278;2023-02-20T14:27:40;95617.16;;;12.65;40.97
6132;BME280;3097;42.692;23.278;2023-02-20T14:32:45;95625.00;;;12.59;41.51
6132;BME280;3097;42.692;23.278;2023-02-20T14:37:57;95618.38;;;12.45;42.51
6132;BME280;3097;42.692;23.278;2023-02-20T14:40:36;95620.19;;;12.44;42.82
6132;BME280;3097;42.692;23.278;2023-02-20T14:43:11;95607.19;;;12.32;42.66
6132;BME280;3097;42.692;23.278;2023-02-20T14:45:38;95643.50;;;12.37;42.21
6132;BME280;3097;42.692;23.278;2023-02-20T14:48:04;95626.75;;;12.22;42.61
6132;BME280;3097;42.692;23.278;2023-02-20T14:50:32;95633.91;;;12.20;42.94
6132;BME280;3097;42.692;23.278;2023-02-20T14:53:18;95631.06;;;12.28;43.21
6132;BME280;3097;42.692;23.278;2023-02-20T14:55:50;95630.47;;;12.26;42.93
6132;BME280;3097;42.692;23.278;2023-02-20T14:58:18;95633.84;;;12.26;43.07
6132;BME280;3097;42.692;23.278;2023-02-20T15:00:45;95638.09;;;12.21;43.08
6132;BME280;3097;42.692;23.278;2023-02-20T15:03:21;95630.13;;;11.97;43.90
6132;BME280;3097;42.692;23.278;2023-02-20T15:05:48;95639.47;;;11.98;43.85
6132;BME280;3097;42.692;23.278;2023-02-20T15:10:45;95651.63;;;11.91;43.98
6132;BME280;3097;42.692;23.278;2023-02-20T15:13:14;95675.16;;;11.83;44.41
6132;BME280;3097;42.692;23.278;2023-02-20T15:15:45;95671.09;;;11.94;44.58
6132;BME280;3097;42.692;23.278;2023-02-20T15:18:16;95648.13;;;11.86;44.51
6132;BME280;3097;42.692;23.278;2023-02-20T15:20:54;95672.47;;;11.96;44.63
6132;BME280;3097;42.692;23.278;2023-02-20T15:23:31;95656.34;;;12.01;44.28
6132;BME280;3097;42.692;23.278;2023-02-20T15:25:57;95639.81;;;11.77;44.76
6132;BME280;3097;42.692;23.278;2023-02-20T15:28:29;95675.47;;;11.93;44.37